createdAt,value
2018-08-08T00:01:44.150Z,6.03
2018-08-08T00:04:11.804Z,4.90
2018-08-08T00:06:39.332Z,4.90
2018-08-08T00:09:08.742Z,5.80
2018-08-08T00:11:36.396Z,5.37
2018-08-08T00:14:04.247Z,5.67
2018-08-08T00:16:31.895Z,5.03
2018-08-08T00:18:59.520Z,5.93
2018-08-08T00:21:27.331Z,5.77
2018-08-08T00:23:55.116Z,5.83
2018-08-08T00:26:22.729Z,5.07
2018-08-08T00:28:50.456Z,5.43
2018-08-08T00:31:18.173Z,5.47
2018-08-08T00:33:45.933Z,5.23
2018-08-08T00:36:13.635Z,4.00
2018-08-08T00:38:41.399Z,4.87
2018-08-08T00:41:09.136Z,4.60
2018-08-08T00:43:36.875Z,5.10
2018-08-08T00:46:04.727Z,4.97
2018-08-08T00:48:32.336Z,3.80
2018-08-08T00:51:00.099Z,3.43
2018-08-08T00:53:27.824Z,4.00
2018-08-08T00:55:55.442Z,4.53
2018-08-08T00:58:23.221Z,4.73
2018-08-08T01:00:50.916Z,3.90
2018-08-08T01:03:18.613Z,4.03
2018-08-08T01:05:46.266Z,4.33
2018-08-08T01:08:14.017Z,4.20
2018-08-08T01:10:41.733Z,4.17
2018-08-08T01:13:09.344Z,3.70
2018-08-08T01:15:37.054Z,3.90
2018-08-08T01:18:05.652Z,4.33
2018-08-08T01:20:33.346Z,5.00
2018-08-08T01:23:01.020Z,5.20
2018-08-08T01:25:28.703Z,5.13
2018-08-08T01:27:56.412Z,4.60
2018-08-08T01:30:24.154Z,4.93
2018-08-08T01:32:51.815Z,5.50
2018-08-08T01:35:19.609Z,4.93
2018-08-08T01:37:47.389Z,4.53
2018-08-08T01:40:17.219Z,5.13
2018-08-08T01:42:45.201Z,5.80
2018-08-08T01:45:14.093Z,4.93
2018-08-08T01:47:41.756Z,5.60
2018-08-08T01:50:11.445Z,6.03
2018-08-08T01:52:39.549Z,4.93
2018-08-08T01:55:08.840Z,5.67
2018-08-08T01:57:36.749Z,5.53
2018-08-08T02:00:07.806Z,5.90
2018-08-08T02:02:35.715Z,6.33
2018-08-08T02:05:03.729Z,6.17
2018-08-08T02:07:31.421Z,5.67
2018-08-08T02:09:59.071Z,6.03
2018-08-08T02:12:26.928Z,5.70
2018-08-08T02:14:54.644Z,5.47
2018-08-08T02:17:22.440Z,5.60
2018-08-08T02:19:50.522Z,7.13
2018-08-08T02:22:18.314Z,5.50
2018-08-08T02:24:45.932Z,6.20
2018-08-08T02:27:13.512Z,6.67
2018-08-08T02:29:41.228Z,7.17
2018-08-08T02:32:08.955Z,7.50
2018-08-08T02:34:36.674Z,7.47
2018-08-08T02:37:04.544Z,8.40
2018-08-08T02:39:32.266Z,7.70
2018-08-08T02:42:00.158Z,7.37
2018-08-08T02:44:27.950Z,6.97
2018-08-08T02:46:55.580Z,7.17
2018-08-08T02:49:23.746Z,7.57
2018-08-08T02:51:51.470Z,7.27
2018-08-08T02:54:19.205Z,7.50
2018-08-08T02:56:46.876Z,8.60
2018-08-08T02:59:14.935Z,8.00
2018-08-08T03:01:42.835Z,9.20
2018-08-08T03:04:10.773Z,9.27
2018-08-08T03:06:38.293Z,8.60
2018-08-08T03:09:08.691Z,7.77
2018-08-08T03:11:36.592Z,7.77
2018-08-08T03:14:04.449Z,9.37
2018-08-08T03:16:32.097Z,8.20
2018-08-08T03:18:59.737Z,8.90
2018-08-08T03:21:27.530Z,8.33
2018-08-08T03:23:55.141Z,10.07
2018-08-08T03:26:22.768Z,9.03
2018-08-08T03:28:50.389Z,8.00
2018-08-08T03:31:18.026Z,9.50
2018-08-08T03:33:45.748Z,9.30
2018-08-08T03:36:13.335Z,9.43
2018-08-08T03:38:40.869Z,8.73
2018-08-08T03:41:08.462Z,7.93
2018-08-08T03:43:40.334Z,9.03
2018-08-08T03:46:08.019Z,7.93
2018-08-08T03:48:35.683Z,10.10
2018-08-08T03:51:03.270Z,10.63
2018-08-08T03:53:30.949Z,9.37
2018-08-08T03:55:58.485Z,9.90
2018-08-08T03:58:26.145Z,9.83
2018-08-08T04:00:53.761Z,10.43
2018-08-08T04:03:21.399Z,11.43
2018-08-08T04:05:48.958Z,10.70
2018-08-08T04:08:16.600Z,8.77
2018-08-08T04:10:44.161Z,9.60
2018-08-08T04:13:11.772Z,11.80
2018-08-08T04:15:39.361Z,11.60
2018-08-08T04:18:07.018Z,10.93
2018-08-08T04:20:34.673Z,10.30
2018-08-08T04:23:02.245Z,11.13
2018-08-08T04:25:29.854Z,11.63
2018-08-08T04:27:57.377Z,11.00
2018-08-08T04:30:24.917Z,10.80
2018-08-08T04:32:59.484Z,10.40
2018-08-08T04:35:27.138Z,10.60
2018-08-08T04:38:24.251Z,10.90
2018-08-08T04:40:51.836Z,11.17
2018-08-08T04:43:19.456Z,11.25
2018-08-08T04:45:47.074Z,10.50
2018-08-08T04:48:14.702Z,11.00
2018-08-08T04:50:42.268Z,9.50
2018-08-08T04:53:09.847Z,10.40
2018-08-08T04:55:37.649Z,10.80
2018-08-08T04:58:05.436Z,11.00
2018-08-08T05:00:33.060Z,11.60
2018-08-08T05:03:00.694Z,11.90
2018-08-08T05:05:28.257Z,13.15
2018-08-08T05:07:55.940Z,12.93
2018-08-08T05:10:23.549Z,14.80
2018-08-08T05:12:51.154Z,13.00
2018-08-08T05:15:18.929Z,13.70
2018-08-08T05:17:47.711Z,12.37
2018-08-08T05:20:15.802Z,12.70
2018-08-08T05:22:44.813Z,10.93
2018-08-08T05:25:12.821Z,12.60
2018-08-08T05:27:40.415Z,12.37
2018-08-08T05:30:14.776Z,10.60
2018-08-08T05:32:42.390Z,11.43
2018-08-08T05:35:11.288Z,11.05
2018-08-08T05:37:39.030Z,10.63
2018-08-08T05:40:16.869Z,10.47
2018-08-08T05:42:45.038Z,10.57
2018-08-08T05:45:13.803Z,10.33
2018-08-08T05:47:43.426Z,10.40
2018-08-08T05:50:11.810Z,10.33
2018-08-08T05:52:40.446Z,10.47
2018-08-08T05:55:09.696Z,10.20
2018-08-08T05:57:37.358Z,11.70
2018-08-08T06:00:14.226Z,13.20
2018-08-08T06:02:41.901Z,10.40
2018-08-08T06:05:09.528Z,11.63
2018-08-08T06:07:37.539Z,12.50
2018-08-08T06:10:05.394Z,12.07
2018-08-08T06:12:33.077Z,12.15
2018-08-08T06:15:00.699Z,11.57
2018-08-08T06:17:28.261Z,11.87
2018-08-08T06:19:55.949Z,12.70
2018-08-08T06:22:23.608Z,12.47
2018-08-08T06:24:51.200Z,12.40
2018-08-08T06:27:18.786Z,12.43
2018-08-08T06:29:46.368Z,11.70
2018-08-08T06:32:13.974Z,11.60
2018-08-08T06:34:41.591Z,12.10
2018-08-08T06:37:09.214Z,9.83
2018-08-08T06:39:36.817Z,11.95
2018-08-08T06:42:04.531Z,11.33
2018-08-08T06:44:32.102Z,11.93
2018-08-08T06:46:59.836Z,10.65
2018-08-08T06:49:27.444Z,11.38
2018-08-08T06:51:55.070Z,10.40
2018-08-08T06:54:22.684Z,11.37
2018-08-08T06:56:50.443Z,12.47
2018-08-08T06:59:18.024Z,11.53
2018-08-08T07:01:45.625Z,12.80
2018-08-08T07:04:13.246Z,13.15
2018-08-08T07:06:40.807Z,13.30
2018-08-08T07:09:10.117Z,13.13
2018-08-08T07:11:37.749Z,13.10
2018-08-08T07:14:05.619Z,13.83
2018-08-08T07:16:33.215Z,13.40
2018-08-08T07:19:00.842Z,13.57
2018-08-08T07:21:28.433Z,12.40
2018-08-08T07:23:56.026Z,13.33
2018-08-08T07:26:23.602Z,13.78
2018-08-08T07:28:51.181Z,14.20
2018-08-08T07:31:18.781Z,12.67
2018-08-08T07:33:46.357Z,13.65
2018-08-08T07:36:13.998Z,13.80
2018-08-08T07:38:41.578Z,14.10
2018-08-08T07:41:09.231Z,12.80
2018-08-08T07:43:36.854Z,13.87
2018-08-08T07:46:04.716Z,12.50
2018-08-08T07:48:32.347Z,12.20
2018-08-08T07:51:00.018Z,12.07
2018-08-08T07:53:27.645Z,12.90
2018-08-08T07:55:55.294Z,12.53
2018-08-08T07:58:22.938Z,12.50
2018-08-08T08:00:50.668Z,12.97
2018-08-08T08:03:18.219Z,11.17
2018-08-08T08:05:45.874Z,12.30
2018-08-08T08:08:13.444Z,11.85
2018-08-08T08:10:41.022Z,11.43
2018-08-08T08:13:08.624Z,11.30
2018-08-08T08:15:36.222Z,11.23
2018-08-08T08:18:03.880Z,11.85
2018-08-08T08:20:31.511Z,10.20
2018-08-08T08:22:59.070Z,8.90
2018-08-08T08:25:26.721Z,10.23
2018-08-08T08:27:54.380Z,8.23
2018-08-08T08:30:21.914Z,8.77
2018-08-08T08:32:49.441Z,7.33
2018-08-08T08:35:17.039Z,5.80
2018-08-08T08:37:44.680Z,7.00
2018-08-08T08:40:13.025Z,5.70
2018-08-08T08:42:41.385Z,7.10
2018-08-08T08:45:08.986Z,6.57
2018-08-08T08:47:36.585Z,6.33
2018-08-08T08:50:04.996Z,7.13
2018-08-08T08:52:32.527Z,6.77
2018-08-08T08:55:00.130Z,6.13
2018-08-08T08:57:27.728Z,7.43
2018-08-08T08:59:55.351Z,5.77
2018-08-08T09:02:22.975Z,5.72
2018-08-08T09:04:50.633Z,6.20
2018-08-08T09:07:18.309Z,6.07
2018-08-08T09:09:45.931Z,5.10
2018-08-08T09:12:13.646Z,5.20
2018-08-08T09:14:41.202Z,5.33
2018-08-08T09:17:08.876Z,6.43
2018-08-08T09:19:36.482Z,6.67
2018-08-08T09:22:04.260Z,5.08
2018-08-08T09:24:31.856Z,5.50
2018-08-08T09:26:59.513Z,6.53
2018-08-08T09:29:27.112Z,6.03
2018-08-08T09:31:54.742Z,5.85
2018-08-08T09:34:22.346Z,5.37
2018-08-08T09:36:49.962Z,5.60
2018-08-08T09:39:17.500Z,5.93
2018-08-08T09:41:45.366Z,6.15
2018-08-08T09:44:13.069Z,5.70
2018-08-08T09:46:40.805Z,6.10
2018-08-08T09:49:08.837Z,6.25
2018-08-08T09:51:36.570Z,5.43
2018-08-08T09:54:04.279Z,5.30
2018-08-08T09:56:32.115Z,5.72
2018-08-08T09:58:59.641Z,5.53
2018-08-08T10:01:39.252Z,5.43
2018-08-08T10:04:12.769Z,6.20
2018-08-08T10:06:40.486Z,6.17
2018-08-08T10:09:08.179Z,4.83
2018-08-08T10:11:36.067Z,6.10
2018-08-08T10:14:03.729Z,4.92
2018-08-08T10:16:31.283Z,5.27
2018-08-08T10:18:58.942Z,3.90
2018-08-08T10:21:26.647Z,4.53
2018-08-08T10:23:54.311Z,4.22
2018-08-08T10:26:21.923Z,5.15
2018-08-08T10:28:49.644Z,6.37
2018-08-08T10:31:17.286Z,5.43
2018-08-08T10:33:44.927Z,5.80
2018-08-08T10:36:19.487Z,4.75
2018-08-08T10:38:47.009Z,4.77
2018-08-08T10:41:14.656Z,5.33
2018-08-08T10:43:42.832Z,4.83
2018-08-08T10:46:10.769Z,4.72
2018-08-08T10:48:38.455Z,4.60
2018-08-08T10:51:06.579Z,4.97
2018-08-08T10:53:34.255Z,5.60
2018-08-08T10:56:01.985Z,4.92
2018-08-08T10:58:36.432Z,5.60
2018-08-08T11:01:04.124Z,5.10
2018-08-08T11:03:31.837Z,5.10
2018-08-08T11:05:59.794Z,4.58
2018-08-08T11:08:27.508Z,4.62
2018-08-08T11:10:55.259Z,5.28
2018-08-08T11:13:22.947Z,5.03
2018-08-08T11:15:50.577Z,5.10
2018-08-08T11:18:18.493Z,5.47
2018-08-08T11:20:46.212Z,5.53
2018-08-08T11:23:14.479Z,5.23
2018-08-08T11:25:42.167Z,4.83
2018-08-08T11:28:09.843Z,4.37
2018-08-08T11:30:37.536Z,6.00
2018-08-08T11:33:05.458Z,4.73
2018-08-08T11:35:33.174Z,4.10
2018-08-08T11:38:00.863Z,4.50
2018-08-08T11:40:28.597Z,4.12
2018-08-08T11:42:56.288Z,4.87
2018-08-08T11:45:23.995Z,4.93
2018-08-08T11:47:51.586Z,5.10
2018-08-08T11:50:19.353Z,4.13
2018-08-08T11:52:46.970Z,4.20
2018-08-08T11:55:14.685Z,4.97
2018-08-08T11:57:42.683Z,5.00
2018-08-08T12:00:10.304Z,5.50
2018-08-08T12:02:38.507Z,4.90
2018-08-08T12:05:06.452Z,4.23
2018-08-08T12:07:34.076Z,5.20
2018-08-08T12:10:01.635Z,5.28
2018-08-08T12:12:29.427Z,5.40
2018-08-08T12:14:57.024Z,5.40
2018-08-08T12:17:24.792Z,6.10
2018-08-08T12:19:52.416Z,8.13
2018-08-08T12:22:19.941Z,7.95
2018-08-08T12:24:47.519Z,6.13
2018-08-08T12:27:15.157Z,6.90
2018-08-08T12:29:42.757Z,6.20
2018-08-08T12:32:10.638Z,7.03
2018-08-08T12:34:38.154Z,8.70
2018-08-08T12:37:06.022Z,9.08
2018-08-08T12:39:33.590Z,8.13
2018-08-08T12:42:01.218Z,7.30
2018-08-08T12:44:28.785Z,7.93
2018-08-08T12:46:56.541Z,7.62
2018-08-08T12:49:24.451Z,8.53
2018-08-08T12:51:52.056Z,7.85
2018-08-08T12:54:19.693Z,7.63
2018-08-08T12:56:47.288Z,8.37
2018-08-08T12:59:14.914Z,8.57
2018-08-08T13:01:42.514Z,9.98
2018-08-08T13:04:10.210Z,9.07
2018-08-08T13:06:37.983Z,9.20
2018-08-08T13:09:09.249Z,10.58
2018-08-08T13:11:36.865Z,10.30
2018-08-08T13:14:04.484Z,10.98
2018-08-08T13:16:32.073Z,10.60
2018-08-08T13:18:59.721Z,12.43
2018-08-08T13:21:27.209Z,10.77
2018-08-08T13:23:54.943Z,12.07
2018-08-08T13:26:22.429Z,11.00
2018-08-08T13:28:50.102Z,10.27
2018-08-08T13:31:17.859Z,8.50
2018-08-08T13:33:45.469Z,8.43
2018-08-08T13:36:13.052Z,7.30
2018-08-08T13:38:40.761Z,7.85
2018-08-08T13:41:08.321Z,8.78
2018-08-08T13:43:36.066Z,7.10
2018-08-08T13:46:03.737Z,8.00
2018-08-08T13:48:32.071Z,7.20
2018-08-08T13:50:59.721Z,7.27
2018-08-08T13:53:27.239Z,6.70
2018-08-08T13:55:54.813Z,7.27
2018-08-08T13:58:22.368Z,5.65
2018-08-08T14:00:49.936Z,5.80
2018-08-08T14:03:17.519Z,4.83
2018-08-08T14:05:45.109Z,6.65
2018-08-08T14:08:12.679Z,6.70
2018-08-08T14:10:40.216Z,7.22
2018-08-08T14:13:07.853Z,7.77
2018-08-08T14:15:35.448Z,6.00
2018-08-08T14:18:03.186Z,6.90
2018-08-08T14:20:30.828Z,8.43
2018-08-08T14:22:58.419Z,10.08
2018-08-08T14:25:26.049Z,7.97
2018-08-08T14:27:53.630Z,8.00
2018-08-08T14:30:21.191Z,8.08
2018-08-08T14:32:48.797Z,8.03
2018-08-08T14:35:16.506Z,6.42
2018-08-08T14:37:44.169Z,6.72
2018-08-08T14:40:11.778Z,6.53
2018-08-08T14:42:39.333Z,6.30
2018-08-08T14:45:07.011Z,6.23
2018-08-08T14:47:34.650Z,6.33
2018-08-08T14:50:02.288Z,5.90
2018-08-08T14:52:29.841Z,6.20
2018-08-08T14:54:57.459Z,6.33
2018-08-08T14:57:25.633Z,7.30
2018-08-08T14:59:53.239Z,6.50
2018-08-08T15:02:20.787Z,6.00
2018-08-08T15:04:48.375Z,6.50
2018-08-08T15:07:15.989Z,6.60
2018-08-08T15:09:43.626Z,7.87
2018-08-08T15:12:11.260Z,9.13
2018-08-08T15:14:38.912Z,8.00
2018-08-08T15:17:06.586Z,8.80
2018-08-08T15:19:34.134Z,10.07
2018-08-08T15:22:01.770Z,9.30
2018-08-08T15:24:29.388Z,8.47
2018-08-08T15:26:56.991Z,8.35
2018-08-08T15:29:24.594Z,7.47
2018-08-08T15:31:52.243Z,8.00
2018-08-08T15:34:19.783Z,8.30
2018-08-08T15:36:47.555Z,6.73
2018-08-08T15:39:14.934Z,6.93
2018-08-08T15:41:43.142Z,5.80
2018-08-08T15:44:10.744Z,5.40
2018-08-08T15:46:38.342Z,4.80
2018-08-08T15:49:05.993Z,4.67
2018-08-08T15:51:33.810Z,4.55
2018-08-08T15:54:01.449Z,3.87
2018-08-08T15:56:29.111Z,4.03
2018-08-08T15:58:56.797Z,4.25
2018-08-08T16:01:24.546Z,3.50
2018-08-08T16:03:52.203Z,4.10
2018-08-08T16:06:19.940Z,4.60
2018-08-08T16:08:47.725Z,4.40
2018-08-08T16:11:15.512Z,4.00
2018-08-08T16:13:43.321Z,4.28
2018-08-08T16:16:12.126Z,4.50
2018-08-08T16:18:39.962Z,4.20
2018-08-08T16:21:08.146Z,4.85
2018-08-08T16:23:36.476Z,5.37
2018-08-08T16:26:04.816Z,5.50
2018-08-08T16:28:32.856Z,4.40
2018-08-08T16:31:00.892Z,5.83
2018-08-08T16:33:29.372Z,4.87
2018-08-08T16:35:57.414Z,5.10
2018-08-08T16:38:25.171Z,4.30
2018-08-08T16:40:53.968Z,4.70
2018-08-08T16:43:21.885Z,5.60
2018-08-08T16:45:50.252Z,5.40
2018-08-08T16:48:18.245Z,7.30
2018-08-08T16:50:46.047Z,6.07
2018-08-08T16:53:13.907Z,6.40
2018-08-08T16:55:42.428Z,5.67
2018-08-08T16:58:11.277Z,6.43
2018-08-08T17:00:39.259Z,5.80
2018-08-08T17:03:07.329Z,5.90
2018-08-08T17:05:35.753Z,5.13
2018-08-08T17:08:03.977Z,12.90
2018-08-08T17:10:31.935Z,5.97
2018-08-08T17:13:00.082Z,5.70
2018-08-08T17:15:28.341Z,6.63
2018-08-08T17:17:56.390Z,5.80
2018-08-08T17:20:24.532Z,6.40
2018-08-08T17:22:52.483Z,5.73
2018-08-08T17:25:20.513Z,5.63
2018-08-08T17:27:48.377Z,6.30
2018-08-08T17:30:16.347Z,6.10
2018-08-08T17:32:44.343Z,6.30
2018-08-08T17:35:12.353Z,5.73
2018-08-08T17:37:40.591Z,6.83
2018-08-08T17:40:08.652Z,7.93
2018-08-08T17:42:36.890Z,6.83
2018-08-08T17:45:05.988Z,8.50
2018-08-08T17:47:34.197Z,9.17
2018-08-08T17:50:02.404Z,8.57
2018-08-08T17:52:30.449Z,9.70
2018-08-08T17:54:58.287Z,9.40
2018-08-08T17:57:26.166Z,7.87
2018-08-08T17:59:53.888Z,9.70
2018-08-08T18:02:21.803Z,6.43
2018-08-08T18:04:49.690Z,7.00
2018-08-08T18:07:17.476Z,7.50
2018-08-08T18:09:45.401Z,6.42
2018-08-08T18:12:13.221Z,9.50
2018-08-08T18:14:42.111Z,7.83
2018-08-08T18:17:09.850Z,7.37
2018-08-08T18:19:37.447Z,8.57
2018-08-08T18:22:05.126Z,7.75
2018-08-08T18:24:32.708Z,8.63
2018-08-08T18:27:00.327Z,10.00
2018-08-08T18:29:27.962Z,11.50
2018-08-08T18:31:55.607Z,11.00
2018-08-08T18:34:23.268Z,9.10
2018-08-08T18:36:51.032Z,10.97
2018-08-08T18:39:18.820Z,9.50
2018-08-08T18:41:53.349Z,10.63
2018-08-08T18:44:21.601Z,9.57
2018-08-08T18:46:50.555Z,10.87
2018-08-08T18:52:20.846Z,11.03
2018-08-08T18:55:05.497Z,12.83
2018-08-08T18:57:33.217Z,10.97
2018-08-08T19:00:01.118Z,12.67
2018-08-08T19:02:29.285Z,11.33
2018-08-08T19:04:57.150Z,11.77
2018-08-08T19:07:25.036Z,10.93
2018-08-08T19:09:52.776Z,11.23
2018-08-08T19:12:20.502Z,11.80
2018-08-08T19:14:48.216Z,11.33
2018-08-08T19:17:16.110Z,11.78
2018-08-08T19:19:44.005Z,10.90
2018-08-08T19:22:11.646Z,13.55
2018-08-08T19:24:40.060Z,10.13
2018-08-08T19:27:07.899Z,10.83
2018-08-08T19:29:35.803Z,13.17
2018-08-08T19:32:03.700Z,12.47
2018-08-08T19:34:31.466Z,9.47
2018-08-08T19:36:59.287Z,9.48
2018-08-08T19:39:27.246Z,9.98
2018-08-08T19:41:55.305Z,10.38
2018-08-08T19:44:23.059Z,11.13
2018-08-08T19:46:50.757Z,10.93
2018-08-08T19:49:18.555Z,12.23
2018-08-08T19:51:46.497Z,13.62
2018-08-08T19:54:14.574Z,13.38
2018-08-08T19:56:42.749Z,13.13
2018-08-08T19:59:11.499Z,13.17
2018-08-08T20:01:39.548Z,11.60
2018-08-08T20:04:07.410Z,12.87
2018-08-08T20:06:35.005Z,14.10
2018-08-08T20:09:03.149Z,12.15
2018-08-08T20:11:30.739Z,13.93
2018-08-08T20:13:58.734Z,15.30
2018-08-08T20:16:26.755Z,12.05
2018-08-08T20:18:54.551Z,21.57
2018-08-08T20:21:22.217Z,21.43
2018-08-08T20:23:49.995Z,14.25
2018-08-08T20:26:17.651Z,15.45
2018-08-08T20:28:45.498Z,15.27
2018-08-08T20:31:13.141Z,13.70
2018-08-08T20:33:40.796Z,13.07
2018-08-08T20:36:08.383Z,13.33
2018-08-08T20:38:35.990Z,13.28
2018-08-08T20:41:03.611Z,16.20
2018-08-08T20:43:31.258Z,17.33
2018-08-08T20:45:58.860Z,24.63
2018-08-08T20:48:26.426Z,30.47
2018-08-08T20:50:55.966Z,28.02
2018-08-08T20:53:25.608Z,30.03
2018-08-08T20:55:53.217Z,22.40
2018-08-08T20:58:21.806Z,26.70
2018-08-08T21:00:49.432Z,28.40
2018-08-08T21:03:16.994Z,24.50
2018-08-08T21:05:44.597Z,23.30
2018-08-08T21:08:12.270Z,21.60
2018-08-08T21:10:39.858Z,20.40
2018-08-08T21:13:07.553Z,17.80
2018-08-08T21:15:35.175Z,20.27
2018-08-08T21:18:02.771Z,20.23
2018-08-08T21:20:30.304Z,20.03
2018-08-08T21:22:57.925Z,20.60
2018-08-08T21:25:25.461Z,19.57
2018-08-08T21:27:53.090Z,18.70
2018-08-08T21:30:20.744Z,17.43
2018-08-08T21:32:48.249Z,16.87
2018-08-08T21:35:15.825Z,18.03
2018-08-08T21:37:44.666Z,16.55
2018-08-08T21:40:13.087Z,16.70
2018-08-08T21:42:41.880Z,16.13
2018-08-08T21:45:10.719Z,16.10
2018-08-08T21:47:39.081Z,13.43
2018-08-08T21:50:07.837Z,12.67
2018-08-08T21:52:36.323Z,13.63
2018-08-08T21:55:21.974Z,14.03
2018-08-08T21:58:07.496Z,12.43
2018-08-08T22:00:53.068Z,14.00
2018-08-08T22:03:38.373Z,12.20
2018-08-08T22:06:23.788Z,13.27
2018-08-08T22:10:13.377Z,13.10
2018-08-08T22:12:58.821Z,12.00
2018-08-08T22:15:44.172Z,12.10
2018-08-08T22:18:30.722Z,12.37
2018-08-08T22:20:58.583Z,11.43
2018-08-08T22:23:26.882Z,11.20
2018-08-08T22:25:55.266Z,11.53
2018-08-08T22:28:23.550Z,11.60
2018-08-08T22:30:51.601Z,11.93
2018-08-08T22:33:19.743Z,11.70
2018-08-08T22:35:47.811Z,11.60
2018-08-08T22:38:15.927Z,13.00
2018-08-08T22:40:43.624Z,12.63
2018-08-08T22:43:11.177Z,12.27
2018-08-08T22:45:38.745Z,10.63
2018-08-08T22:48:07.568Z,10.87
2018-08-08T22:50:36.252Z,10.97
2018-08-08T22:53:04.592Z,10.53
2018-08-08T22:55:32.570Z,11.90
2018-08-08T22:58:00.470Z,11.80
2018-08-08T23:00:28.554Z,10.33
2018-08-08T23:02:56.685Z,13.10
2018-08-08T23:05:24.842Z,14.03
2018-08-08T23:07:52.850Z,11.10
2018-08-08T23:10:20.971Z,12.50
2018-08-08T23:12:49.061Z,11.93
2018-08-08T23:15:17.106Z,13.30
2018-08-08T23:17:46.687Z,14.10
2018-08-08T23:20:15.206Z,14.20
2018-08-08T23:22:52.204Z,13.50
2018-08-08T23:25:20.367Z,14.90
2018-08-08T23:27:49.006Z,14.07
2018-08-08T23:30:17.104Z,14.07
2018-08-08T23:32:45.389Z,14.80
2018-08-08T23:35:13.646Z,14.33
2018-08-08T23:37:41.988Z,14.13
2018-08-08T23:40:10.731Z,16.60
2018-08-08T23:42:38.925Z,15.80
2018-08-08T23:45:07.575Z,13.10
2018-08-08T23:47:37.307Z,13.80
2018-08-08T23:50:06.216Z,13.20
2018-08-08T23:52:33.977Z,13.87
2018-08-08T23:55:11.438Z,14.23
2018-08-08T23:57:39.918Z,14.70
